Time;durP1;ratioP1;P1;durP2;ratioP2;P2;SDS_P1;SDS_P2;PMS_P1;PMS_P2;Temp;Humidity;BMP_temperature;BMP_pressure;BME280_temperature;BME280_humidity;BME280_pressure;Samples;Min_cycle;Max_cycle;Signal;HPM_P1;HPM_P2
2021/10/01 00:00:52;;;;;;;;;;;;;;;7.23;96.16;99283.73;1735011;82;20277;-83
2021/10/01 00:03:17;;;;;;;;;;;;;;;7.28;95.90;99282.00;1735377;82;20266;-83
2021/10/01 00:05:43;;;;;;;;;;;;;;;7.35;96.00;99281.40;1735368;82;20148;-84
2021/10/01 00:08:09;;;;;;;;;;;;;;;7.36;95.91;99287.61;1735493;82;20234;-83
2021/10/01 00:10:35;;;;;;;;;;;;;;;7.36;96.03;99288.96;1735195;82;21065;-83
2021/10/01 00:13:01;;;;;;;;;;;;;;;7.42;94.93;99289.38;1735250;82;20214;-84
2021/10/01 00:15:28;;;;;;;;;;;;;;;7.40;94.64;99283.92;1706194;82;20671;-83
2021/10/01 00:17:54;;;;;;;;;;;;;;;7.37;94.37;99285.20;1735675;82;20149;-84
2021/10/01 00:20:20;;;;;;;;;;;;;;;7.31;94.29;99288.81;1735151;82;20159;-83
2021/10/01 00:22:45;;;;;;;;;;;;;;;7.23;94.10;99293.16;1735835;82;21166;-84
2021/10/01 00:25:11;;;;;;;;;;;;;;;7.16;94.43;99284.33;1735153;82;20182;-84
2021/10/01 00:27:37;;;;;;;;;;;;;;;7.16;94.35;99282.98;1706096;82;20155;-83
2021/10/01 00:30:04;;;;;;;;;;;;;;;7.16;94.70;99282.98;1735218;82;20175;-83
2021/10/01 00:32:29;;;;;;;;;;;;;;;7.20;94.58;99282.84;1735181;82;20160;-84
2021/10/01 00:34:55;;;;;;;;;;;;;;;7.23;94.27;99282.38;1735169;82;21244;-83
2021/10/01 00:37:21;;;;;;;;;;;;;;;7.17;94.30;99277.36;1735216;82;20214;-83
2021/10/01 00:39:47;;;;;;;;;;;;;;;7.17;95.52;99279.23;1735213;82;20691;-83
2021/10/01 00:42:13;;;;;;;;;;;;;;;7.22;94.82;99280.20;1735162;82;20178;-84
2021/10/01 00:44:38;;;;;;;;;;;;;;;7.24;94.81;99275.94;1735315;82;20700;-84
2021/10/01 00:47:04;;;;;;;;;;;;;;;7.25;94.77;99275.70;1706206;82;21815;-83
2021/10/01 00:49:30;;;;;;;;;;;;;;;7.22;94.51;99280.20;1735202;82;20178;-83
2021/10/01 00:51:55;;;;;;;;;;;;;;;7.24;94.18;99278.10;1735213;82;20183;-84
2021/10/01 00:54:21;;;;;;;;;;;;;;;7.22;94.04;99276.16;1736816;82;20226;-83
2021/10/01 00:56:47;;;;;;;;;;;;;;;7.13;93.93;99272.66;1738318;82;20174;-83
2021/10/01 00:59:13;;;;;;;;;;;;;;;7.02;94.23;99265.64;1738550;82;21054;-83
2021/10/01 01:01:38;;;;;;;;;;;;;;;7.02;95.33;99266.99;1738526;82;20170;-84
2021/10/01 01:04:05;;;;;;;;;;;;;;;7.09;95.20;99268.23;1738582;82;20277;-83
2021/10/01 01:06:59;;;;;;;;;;;;;;;7.11;94.24;99258.59;1738365;82;20425;-83
2021/10/01 01:09:46;;;;;;;;;;;;;;;7.03;94.18;99253.81;1738440;82;20176;-83
2021/10/01 01:12:34;;;;;;;;;;;;;;;7.02;94.08;99255.39;1711424;82;21402;-83
2021/10/01 01:15:08;;;;;;;;;;;;;;;6.97;94.19;99252.02;1737610;82;20154;-83
2021/10/01 01:17:54;;;;;;;;;;;;;;;6.85;95.17;99261.92;1711205;82;20455;-83
2021/10/01 01:20:44;;;;;;;;;;;;;;;6.91;95.56;99264.22;1738362;82;20112;-84
2021/10/01 01:23:32;;;;;;;;;;;;;;;6.95;95.53;99255.47;1738763;82;20144;-84
2021/10/01 01:26:21;;;;;;;;;;;;;;;7.00;94.97;99262.33;1738358;82;21267;-84
2021/10/01 01:29:18;;;;;;;;;;;;;;;6.98;94.43;99258.22;1738547;82;20140;-83
2021/10/01 01:31:59;;;;;;;;;;;;;;;6.96;93.80;99255.77;1738524;82;20168;-84
2021/10/01 01:34:29;;;;;;;;;;;;;;;6.88;93.89;99257.94;1738576;82;20420;-83
2021/10/01 01:36:57;;;;;;;;;;;;;;;6.81;94.80;99260.70;1738363;82;20136;-83
2021/10/01 01:39:23;;;;;;;;;;;;;;;6.79;95.80;99269.02;1738666;82;21081;-83
2021/10/01 01:41:49;;;;;;;;;;;;;;;6.82;94.34;99263.70;1711160;82;20214;-82
2021/10/01 01:44:15;;;;;;;;;;;;;;;6.80;94.14;99263.10;1738274;82;20702;-82
2021/10/01 01:46:41;;;;;;;;;;;;;;;6.74;94.33;99264.81;1738456;82;20169;-83
2021/10/01 01:49:08;;;;;;;;;;;;;;;6.75;96.35;99262.45;1738530;82;20200;-82
2021/10/01 01:51:34;;;;;;;;;;;;;;;6.82;95.59;99269.61;1710484;82;21076;-82
2021/10/01 01:53:59;;;;;;;;;;;;;;;6.90;94.91;99266.09;1737555;82;20203;-82
2021/10/01 01:56:25;;;;;;;;;;;;;;;6.91;94.31;99265.03;1735117;82;20226;-82
2021/10/01 01:58:51;;;;;;;;;;;;;;;6.81;94.70;99267.97;1735447;82;20560;-82
2021/10/01 02:01:17;;;;;;;;;;;;;;;6.78;95.09;99265.20;1734993;82;20656;-82
2021/10/01 02:03:43;;;;;;;;;;;;;;;6.85;94.21;99268.66;1735420;82;21260;-82
2021/10/01 02:06:08;;;;;;;;;;;;;;;6.76;94.11;99266.78;1735114;82;20175;-82
2021/10/01 02:08:34;;;;;;;;;;;;;;;6.71;94.98;99268.49;1735487;82;20242;-82
2021/10/01 02:11:00;;;;;;;;;;;;;;;6.76;94.33;99270.83;1735181;82;20089;-82
2021/10/01 02:13:26;;;;;;;;;;;;;;;6.73;94.32;99271.78;1735337;82;20246;-82
2021/10/01 02:15:54;;;;;;;;;;;;;;;6.75;94.21;99271.02;1735172;82;21104;-82
2021/10/01 02:18:24;;;;;;;;;;;;;;;6.69;94.12;99274.11;1735368;82;20227;-81
2021/10/01 02:20:50;;;;;;;;;;;;;;;6.66;94.12;99276.41;1735045;82;20141;-81
2021/10/01 02:23:16;;;;;;;;;;;;;;;6.67;94.00;99276.73;1704883;82;20475;-81
2021/10/01 02:28:35;;;;;;;;;;;;;;;6.56;93.93;99280.15;1735583;82;21176;-82
2021/10/01 02:31:06;;;;;;;;;;;;;;;6.50;93.92;99281.36;1734951;82;20141;-82
2021/10/01 02:33:38;;;;;;;;;;;;;;;6.40;94.58;99283.71;1706644;82;20128;-82
2021/10/01 02:36:04;;;;;;;;;;;;;;;6.42;94.52;99280.30;1735038;82;20136;-82
2021/10/01 02:38:30;;;;;;;;;;;;;;;6.37;94.38;99279.30;1735860;82;20183;-82
2021/10/01 02:40:56;;;;;;;;;;;;;;;6.40;94.38;99275.63;1735039;82;21016;-82
2021/10/01 02:43:21;;;;;;;;;;;;;;;6.42;94.45;99268.18;1735145;82;20290;-82
2021/10/01 02:45:47;;;;;;;;;;;;;;;6.42;94.37;99275.44;1735112;82;20151;-82
2021/10/01 02:48:13;;;;;;;;;;;;;;;6.38;94.43;99273.69;1735128;82;20171;-82
2021/10/01 02:50:38;;;;;;;;;;;;;;;6.36;94.63;99268.23;1735120;82;20628;-82
2021/10/01 02:53:14;;;;;;;;;;;;;;;6.31;94.61;99271.58;1735106;82;21314;-82
2021/10/01 02:55:50;;;;;;;;;;;;;;;6.30;94.67;99270.47;1736721;82;20156;-82
2021/10/01 02:58:25;;;;;;;;;;;;;;;6.29;94.68;99276.37;1738517;82;20116;-82
2021/10/01 03:00:51;;;;;;;;;;;;;;;6.28;94.70;99270.69;1738211;82;20223;-82
2021/10/01 03:03:22;;;;;;;;;;;;;;;6.31;94.88;99261.34;1709936;82;20242;-82
2021/10/01 03:05:49;;;;;;;;;;;;;;;6.30;94.80;99259.17;1738436;82;21098;-82
2021/10/01 03:08:16;;;;;;;;;;;;;;;6.28;95.18;99263.96;1738201;82;20144;-82
2021/10/01 03:10:41;;;;;;;;;;;;;;;6.30;95.01;99267.77;1738091;82;20215;-82
2021/10/01 03:13:07;;;;;;;;;;;;;;;6.32;95.15;99262.98;1738303;82;20246;-82
2021/10/01 03:15:35;;;;;;;;;;;;;;;6.35;95.22;99259.34;1738345;82;20147;-82
2021/10/01 03:18:01;;;;;;;;;;;;;;;6.37;95.06;99255.90;1738276;82;20698;-82
2021/10/01 03:20:26;;;;;;;;;;;;;;;6.40;94.86;99254.09;1738165;82;20293;-82
2021/10/01 03:22:53;;;;;;;;;;;;;;;6.39;94.92;99254.32;1738187;82;20289;-82
2021/10/01 03:25:19;;;;;;;;;;;;;;;6.37;95.01;99253.73;1738381;82;20149;-82
2021/10/01 03:27:45;;;;;;;;;;;;;;;6.43;94.88;99253.67;1711087;82;20151;-82
2021/10/01 03:30:11;;;;;;;;;;;;;;;6.36;94.55;99254.78;1686604;82;21017;-82
2021/10/01 03:32:36;;;;;;;;;;;;;;;6.31;94.79;99249.23;1738368;82;20178;-82
2021/10/01 03:35:04;;;;;;;;;;;;;;;6.35;94.90;99247.75;1738420;82;20202;-82
2021/10/01 03:37:30;;;;;;;;;;;;;;;6.30;95.13;99246.23;1738415;82;20068;-82
2021/10/01 03:39:57;;;;;;;;;;;;;;;6.38;95.13;99240.03;1738654;82;20373;-82
2021/10/01 03:42:23;;;;;;;;;;;;;;;6.37;95.74;99240.27;1738284;82;21223;-82
2021/10/01 03:44:49;;;;;;;;;;;;;;;6.41;96.09;99238.76;1738317;82;20157;-83
2021/10/01 03:47:15;;;;;;;;;;;;;;;6.46;96.16;99239.75;1738776;82;20136;-82
2021/10/01 03:49:41;;;;;;;;;;;;;;;6.45;96.39;99233.24;1738319;82;20254;-82
2021/10/01 03:52:09;;;;;;;;;;;;;;;6.47;95.98;99230.63;1709973;82;20211;-82
2021/10/01 03:54:36;;;;;;;;;;;;;;;6.47;95.13;99223.06;1709362;82;21939;-82
2021/10/01 03:57:02;;;;;;;;;;;;;;;6.49;95.86;99223.66;1706277;82;21467;-82
2021/10/01 03:59:28;;;;;;;;;;;;;;;6.47;95.79;99221.72;1735232;82;20396;-82
2021/10/01 04:01:54;;;;;;;;;;;;;;;6.45;95.46;99221.13;1735339;82;20179;-83
2021/10/01 04:04:20;;;;;;;;;;;;;;;6.40;96.06;99221.78;1735301;82;20183;-82
2021/10/01 04:06:45;;;;;;;;;;;;;;;6.42;96.11;99217.02;1735377;82;21308;-83
2021/10/01 04:09:11;;;;;;;;;;;;;;;6.42;96.39;99218.38;1735358;82;20186;-83
2021/10/01 04:11:39;;;;;;;;;;;;;;;6.39;96.35;99216.63;1735630;82;20186;-83
2021/10/01 04:14:05;;;;;;;;;;;;;;;6.34;96.69;99220.01;1706385;82;20459;-82
2021/10/01 04:16:31;;;;;;;;;;;;;;;6.33;96.14;99218.36;1735902;82;20225;-82
2021/10/01 04:18:57;;;;;;;;;;;;;;;6.30;96.25;99214.75;1735566;82;21037;-82
2021/10/01 04:21:23;;;;;;;;;;;;;;;6.27;96.53;99215.73;1735170;82;20222;-83
2021/10/01 04:23:49;;;;;;;;;;;;;;;6.26;96.40;99206.84;1735133;82;20298;-82
2021/10/01 04:26:16;;;;;;;;;;;;;;;6.24;96.36;99211.62;1735263;82;20540;-82
2021/10/01 04:28:41;;;;;;;;;;;;;;;6.21;97.22;99207.48;1735457;82;20199;-82
2021/10/01 04:31:07;;;;;;;;;;;;;;;6.29;96.49;99205.03;1706227;82;22622;-82
2021/10/01 04:33:34;;;;;;;;;;;;;;;6.29;96.32;99212.29;1735311;82;20182;-82
2021/10/01 04:36:00;;;;;;;;;;;;;;;6.32;95.67;99211.31;1705405;82;20153;-82
2021/10/01 04:38:26;;;;;;;;;;;;;;;6.34;95.51;99213.80;1735292;82;20135;-82
2021/10/01 04:40:52;;;;;;;;;;;;;;;6.33;95.43;99214.85;1704763;82;20242;-82
2021/10/01 04:43:18;;;;;;;;;;;;;;;6.31;95.62;99215.58;1735115;82;21234;-82
2021/10/01 04:45:44;;;;;;;;;;;;;;;6.33;95.55;99219.71;1705367;82;20160;-82
2021/10/01 04:48:10;;;;;;;;;;;;;;;6.39;95.90;99211.24;1735221;82;20191;-82
2021/10/01 04:50:36;;;;;;;;;;;;;;;6.41;95.60;99212.69;1735286;82;20191;-82
2021/10/01 04:53:02;;;;;;;;;;;;;;;6.38;96.32;99221.19;1706196;82;20231;-82
2021/10/01 04:55:28;;;;;;;;;;;;;;;6.47;95.51;99214.47;1736771;82;21911;-82
2021/10/01 04:57:54;;;;;;;;;;;;;;;6.43;95.14;99213.80;1738276;82;20176;-82
2021/10/01 05:00:20;;;;;;;;;;;;;;;6.43;95.35;99220.53;1738351;82;20092;-83
2021/10/01 05:02:46;;;;;;;;;;;;;;;6.45;95.27;99223.82;1738473;82;20145;-82
2021/10/01 05:05:12;;;;;;;;;;;;;;;6.49;95.11;99223.16;1710137;82;20084;-82
2021/10/01 05:07:38;;;;;;;;;;;;;;;6.45;94.46;99216.56;1738409;82;21225;-82
2021/10/01 05:10:05;;;;;;;;;;;;;;;6.36;94.70;99216.56;1738402;82;20738;-82
2021/10/01 05:12:31;;;;;;;;;;;;;;;6.34;95.05;99220.01;1739026;82;20157;-82
2021/10/01 05:14:56;;;;;;;;;;;;;;;6.33;95.83;99215.67;1710383;82;20151;-82
2021/10/01 05:17:23;;;;;;;;;;;;;;;6.38;95.12;99214.98;1738908;82;20158;-83
2021/10/01 05:19:49;;;;;;;;;;;;;;;6.39;95.25;99224.18;1738462;82;21012;-82
2021/10/01 05:22:16;;;;;;;;;;;;;;;6.41;95.10;99217.22;1738460;82;20194;-82
2021/10/01 05:24:42;;;;;;;;;;;;;;;6.48;94.61;99224.70;1738514;82;20215;-82
2021/10/01 05:27:08;;;;;;;;;;;;;;;6.37;94.52;99232.19;1738511;82;20133;-82
2021/10/01 05:29:34;;;;;;;;;;;;;;;6.37;95.30;99222.77;1738435;82;20143;-82
2021/10/01 05:31:59;;;;;;;;;;;;;;;6.43;94.70;99225.40;1686463;82;21238;-82
2021/10/01 05:34:25;;;;;;;;;;;;;;;6.33;94.61;99224.27;1738352;82;20415;-82
2021/10/01 05:36:51;;;;;;;;;;;;;;;6.33;95.42;99225.63;1738411;82;20290;-82
2021/10/01 05:39:16;;;;;;;;;;;;;;;6.47;94.24;99227.92;1738401;82;20147;-82
2021/10/01 05:41:42;;;;;;;;;;;;;;;6.41;94.16;99230.19;1738487;82;20183;-82
2021/10/01 05:44:09;;;;;;;;;;;;;;;6.34;94.40;99229.95;1738294;82;21196;-82
2021/10/01 05:46:39;;;;;;;;;;;;;;;6.41;94.20;99230.69;1710180;82;20188;-82
2021/10/01 05:49:03;;;;;;;;;;;;;;;6.37;94.24;99234.36;1737715;82;20129;-82
2021/10/01 05:51:30;;;;;;;;;;;;;;;6.49;94.41;99229.90;1738575;82;20208;-83
2021/10/01 05:56:36;;;;;;;;;;;;;;;6.66;94.48;99226.05;1738308;82;21217;-82
2021/10/01 05:59:02;;;;;;;;;;;;;;;6.85;94.12;99226.89;1738220;82;20238;-82
2021/10/01 06:01:27;;;;;;;;;;;;;;;6.94;93.56;99226.88;1738568;82;20175;-82
2021/10/01 06:03:53;;;;;;;;;;;;;;;7.01;93.46;99233.54;1738206;82;20194;-83
2021/10/01 06:06:19;;;;;;;;;;;;;;;7.03;93.03;99232.25;1711329;82;20124;-82
2021/10/01 06:08:45;;;;;;;;;;;;;;;7.11;92.82;99233.81;1738256;82;21060;-82
2021/10/01 06:11:11;;;;;;;;;;;;;;;7.15;92.49;99239.03;1738651;82;20262;-82
2021/10/01 06:13:37;;;;;;;;;;;;;;;7.06;92.49;99235.00;1738505;82;20242;-82
2021/10/01 06:16:04;;;;;;;;;;;;;;;7.14;92.80;99229.83;1738366;82;20454;-82
2021/10/01 06:18:30;;;;;;;;;;;;;;;7.24;92.87;99234.97;1738294;82;20108;-82
2021/10/01 06:20:55;;;;;;;;;;;;;;;7.29;91.85;99222.98;1738654;82;21058;-82
2021/10/01 06:23:23;;;;;;;;;;;;;;;7.34;91.74;99226.32;1738235;82;20257;-82
2021/10/01 06:25:49;;;;;;;;;;;;;;;7.33;91.33;99224.16;1738289;82;20152;-83
2021/10/01 06:28:15;;;;;;;;;;;;;;;7.27;90.55;99225.63;1738401;82;20158;-82
2021/10/01 06:30:41;;;;;;;;;;;;;;;7.18;90.67;99234.55;1738477;82;20286;-82
2021/10/01 06:33:07;;;;;;;;;;;;;;;7.15;90.39;99231.47;1711179;82;21810;-83
2021/10/01 06:35:33;;;;;;;;;;;;;;;7.07;90.51;99231.26;1738170;82;20149;-82
2021/10/01 06:37:59;;;;;;;;;;;;;;;7.06;90.72;99233.13;1738340;82;20230;-82
2021/10/01 06:40:25;;;;;;;;;;;;;;;7.14;90.09;99233.34;1738264;82;20396;-83
2021/10/01 06:42:52;;;;;;;;;;;;;;;7.10;90.25;99228.12;1738262;82;20180;-82
2021/10/01 06:45:22;;;;;;;;;;;;;;;7.14;90.22;99230.66;1738275;82;21157;-82
2021/10/01 08:19:49;;;;;;;;;;;;;;;22.30;47.75;99150.41;1735280;82;21176;-84
2021/10/01 08:22:15;;;;;;;;;;;;;;;21.93;46.71;99143.67;1735417;82;20187;-84
2021/10/01 08:24:41;;;;;;;;;;;;;;;21.75;49.57;99140.13;1735142;82;20198;-84
2021/10/01 08:27:07;;;;;;;;;;;;;;;22.24;48.19;99136.57;1735335;82;20210;-84
2021/10/01 08:29:33;;;;;;;;;;;;;;;22.08;45.23;99134.91;1704943;82;20203;-84
2021/10/01 08:32:00;;;;;;;;;;;;;;;22.87;47.56;99131.27;1735272;82;21023;-84
2021/10/01 08:34:31;;;;;;;;;;;;;;;23.77;47.32;99122.49;1735082;82;20149;-84
2021/10/01 08:36:57;;;;;;;;;;;;;;;24.65;43.73;99117.02;1735399;82;20431;-84
2021/10/01 08:39:23;;;;;;;;;;;;;;;25.24;44.80;99117.91;1735165;82;20224;-84
2021/10/01 08:41:49;;;;;;;;;;;;;;;24.98;39.60;99109.37;1735098;82;20174;-85
2021/10/01 08:44:15;;;;;;;;;;;;;;;25.15;37.91;99112.50;1735112;82;21085;-84
2021/10/01 08:46:42;;;;;;;;;;;;;;;24.42;35.78;99109.73;1735345;82;20224;-85
2021/10/01 08:49:08;;;;;;;;;;;;;;;23.69;42.11;99114.50;1735213;82;20400;-85
2021/10/01 08:51:34;;;;;;;;;;;;;;;21.67;43.93;99110.60;1735444;82;20175;-85
2021/10/01 08:54:00;;;;;;;;;;;;;;;20.66;48.01;99102.14;1735134;82;20156;-85
2021/10/01 08:56:26;;;;;;;;;;;;;;;19.82;47.88;99100.28;1735212;82;21164;-85
2021/10/01 08:58:52;;;;;;;;;;;;;;;18.64;48.96;99108.20;1735173;82;20180;-85
2021/10/01 09:01:18;;;;;;;;;;;;;;;18.16;48.10;99106.66;1735176;82;20159;-85
2021/10/01 09:03:45;;;;;;;;;;;;;;;17.34;50.33;99100.34;1735199;82;20182;-85
2021/10/01 09:06:11;;;;;;;;;;;;;;;16.72;52.78;99111.91;1706085;82;20140;-85
2021/10/01 09:08:52;;;;;;;;;;;;;;;16.08;53.07;99099.52;1735319;82;21020;-85
2021/10/01 09:11:21;;;;;;;;;;;;;;;15.89;54.68;99101.33;1735069;82;20141;-85
2021/10/01 09:13:46;;;;;;;;;;;;;;;15.57;55.32;99099.15;1734740;82;20436;-85
2021/10/01 09:16:13;;;;;;;;;;;;;;;15.53;54.42;99100.25;1735069;82;20367;-85
2021/10/01 09:18:40;;;;;;;;;;;;;;;14.96;56.55;99099.03;1735143;82;20140;-85
2021/10/01 09:21:13;;;;;;;;;;;;;;;15.07;55.85;99089.68;1735138;82;21067;-85
2021/10/01 09:23:46;;;;;;;;;;;;;;;14.92;58.04;99091.12;1735090;82;20145;-85
2021/10/01 09:26:11;;;;;;;;;;;;;;;14.74;58.96;99086.33;1734000;82;20169;-85
2021/10/01 09:28:56;;;;;;;;;;;;;;;14.73;59.87;99083.33;1734783;82;20158;-85
2021/10/01 09:31:31;;;;;;;;;;;;;;;14.73;59.49;99077.88;1733525;82;20180;-84
2021/10/01 09:33:57;;;;;;;;;;;;;;;14.74;60.98;99081.69;1734322;82;21995;-84
2021/10/01 09:36:25;;;;;;;;;;;;;;;14.66;60.36;99085.00;1735172;82;20278;-84
2021/10/01 09:38:51;;;;;;;;;;;;;;;14.58;61.58;99079.58;1735073;82;20212;-84
2021/10/01 09:41:22;;;;;;;;;;;;;;;14.58;61.79;99078.77;1735143;82;20159;-84
2021/10/01 09:43:45;;;;;;;;;;;;;;;14.46;60.78;99075.01;1734587;82;20149;-84
2021/10/01 09:46:14;;;;;;;;;;;;;;;14.58;62.28;99080.13;1735083;82;21107;-84
2021/10/01 09:48:40;;;;;;;;;;;;;;;14.65;61.57;99080.64;1735151;82;20141;-84
2021/10/01 09:51:08;;;;;;;;;;;;;;;14.49;60.91;99075.80;1705074;82;20157;-84
2021/10/01 09:53:47;;;;;;;;;;;;;;;14.59;62.21;99077.66;1735226;82;20136;-84
2021/10/01 09:56:28;;;;;;;;;;;;;;;14.53;61.79;99071.98;1735856;82;20137;-84
2021/10/01 09:59:07;;;;;;;;;;;;;;;14.63;62.94;99072.75;1711135;82;21197;-84
2021/10/01 10:01:33;;;;;;;;;;;;;;;14.65;61.72;99065.09;1738402;82;20140;-84
2021/10/01 10:04:14;;;;;;;;;;;;;;;14.78;61.94;99066.92;1738355;82;20389;-84
2021/10/01 10:06:45;;;;;;;;;;;;;;;14.87;61.60;99055.16;1738437;82;20140;-83
2021/10/01 10:09:12;;;;;;;;;;;;;;;14.93;63.48;99055.37;1738381;82;20176;-84
2021/10/01 10:11:40;;;;;;;;;;;;;;;14.86;62.07;99053.50;1738508;82;21147;-84
2021/10/01 10:14:10;;;;;;;;;;;;;;;14.93;63.15;99057.28;1737091;82;20140;-84
2021/10/01 10:16:36;;;;;;;;;;;;;;;14.92;62.05;99060.56;1738611;82;20164;-84
2021/10/01 10:19:05;;;;;;;;;;;;;;;14.88;62.94;99054.05;1711238;82;20235;-84
2021/10/01 10:21:30;;;;;;;;;;;;;;;14.92;63.84;99045.55;1711384;82;20412;-84
2021/10/01 10:23:56;;;;;;;;;;;;;;;15.06;62.77;99044.38;1738402;82;21920;-84
2021/10/01 10:26:24;;;;;;;;;;;;;;;15.19;62.04;99035.53;1738272;82;20182;-83
2021/10/01 10:28:52;;;;;;;;;;;;;;;15.31;62.03;99043.92;1738332;82;20416;-84
2021/10/01 10:31:18;;;;;;;;;;;;;;;15.34;62.68;99047.44;1710993;82;20447;-84
2021/10/01 10:33:50;;;;;;;;;;;;;;;15.24;62.33;99040.15;1738373;82;20142;-84
2021/10/01 10:36:28;;;;;;;;;;;;;;;15.26;63.20;99037.12;1738239;82;21235;-84
2021/10/01 10:38:55;;;;;;;;;;;;;;;15.30;63.46;99031.38;1738303;82;20160;-84
2021/10/01 10:41:28;;;;;;;;;;;;;;;15.34;63.24;99033.78;1738234;82;20145;-84
2021/10/01 10:43:54;;;;;;;;;;;;;;;15.39;62.59;99031.02;1738364;82;20153;-83
2021/10/01 10:46:39;;;;;;;;;;;;;;;15.42;62.17;99033.98;1738155;82;20157;-84
2021/10/01 10:49:19;;;;;;;;;;;;;;;15.37;61.68;99024.45;1738239;82;21074;-84
2021/10/01 10:52:11;;;;;;;;;;;;;;;15.34;62.54;99022.31;1738481;82;20141;-84
2021/10/01 10:54:44;;;;;;;;;;;;;;;15.32;63.15;99016.88;1711469;82;20141;-84
2021/10/01 10:57:23;;;;;;;;;;;;;;;15.40;63.46;99017.63;1738418;82;20160;-84
2021/10/01 10:59:53;;;;;;;;;;;;;;;15.50;62.50;99018.89;1738402;82;20136;-83
2021/10/01 11:02:30;;;;;;;;;;;;;;;15.51;62.02;99019.97;1710153;82;21192;-84
2021/10/01 11:05:18;;;;;;;;;;;;;;;15.48;62.67;99018.37;1738239;82;20165;-84
2021/10/01 11:07:50;;;;;;;;;;;;;;;15.44;61.91;99009.92;1738494;82;20128;-84
2021/10/01 11:10:36;;;;;;;;;;;;;;;15.44;61.52;99009.92;1738247;82;20132;-84
2021/10/01 11:13:22;;;;;;;;;;;;;;;15.48;61.13;99005.53;1738425;82;20127;-83
2021/10/01 11:16:08;;;;;;;;;;;;;;;15.60;62.49;99008.41;1738113;82;21150;-83
2021/10/01 11:18:47;;;;;;;;;;;;;;;15.59;61.34;99008.97;1738360;82;20140;-84
2021/10/01 11:21:29;;;;;;;;;;;;;;;15.64;61.89;99002.13;1738180;82;20144;-84
2021/10/01 11:24:10;;;;;;;;;;;;;;;15.60;60.83;98999.67;1738498;82;20428;-83
2021/10/01 11:26:47;;;;;;;;;;;;;;;15.71;62.39;99000.40;1733303;82;20148;-84
2021/10/01 11:29:25;;;;;;;;;;;;;;;15.86;61.06;98996.70;1738311;82;21067;-84
2021/10/01 11:31:56;;;;;;;;;;;;;;;15.96;61.00;98989.19;1738436;82;20396;-84
2021/10/01 11:34:42;;;;;;;;;;;;;;;15.96;60.95;98988.37;1709862;82;20191;-84
2021/10/01 11:37:28;;;;;;;;;;;;;;;15.96;61.77;98985.09;1738476;82;20140;-84
2021/10/01 11:40:08;;;;;;;;;;;;;;;16.01;60.04;98983.67;1738322;82;20412;-84
2021/10/01 11:42:37;;;;;;;;;;;;;;;15.86;59.11;98978.38;1738471;82;21138;-84
2021/10/01 11:45:15;;;;;;;;;;;;;;;15.79;59.38;98976.54;1738404;82;20484;-84
2021/10/01 11:47:54;;;;;;;;;;;;;;;15.69;59.90;98970.64;1738715;82;20448;-84
2021/10/01 11:50:23;;;;;;;;;;;;;;;15.66;60.87;98962.23;1738718;82;20128;-84
2021/10/01 11:52:50;;;;;;;;;;;;;;;15.72;61.34;98970.60;1708919;82;20145;-84
2021/10/01 11:55:16;;;;;;;;;;;;;;;15.60;59.06;98966.08;1738205;82;20646;-84
2021/10/01 11:57:47;;;;;;;;;;;;;;;15.52;59.37;98962.87;1736107;82;20385;-85
2021/10/01 12:00:15;;;;;;;;;;;;;;;15.63;60.94;98965.52;1734146;82;20148;-84
2021/10/01 12:02:43;;;;;;;;;;;;;;;15.85;60.70;98960.36;1735370;82;20160;-84
2021/10/01 12:05:34;;;;;;;;;;;;;;;15.99;61.35;98960.48;1735095;82;20133;-84
2021/10/01 12:08:04;;;;;;;;;;;;;;;16.14;61.50;98957.53;1735316;82;21032;-84
2021/10/01 12:10:32;;;;;;;;;;;;;;;16.28;59.27;98954.89;1735155;82;20135;-84
2021/10/01 12:13:22;;;;;;;;;;;;;;;16.37;59.58;98951.76;1735304;82;20144;-84
2021/10/01 12:15:49;;;;;;;;;;;;;;;16.35;60.25;98952.62;1734710;82;20144;-84
2021/10/01 12:18:30;;;;;;;;;;;;;;;16.36;60.09;98946.03;1706360;82;20180;-84
2021/10/01 12:20:56;;;;;;;;;;;;;;;16.22;57.36;98944.57;1705311;82;20978;-84
2021/10/01 12:23:29;;;;;;;;;;;;;;;16.30;60.00;98943.91;1735242;82;20132;-84
2021/10/01 12:25:55;;;;;;;;;;;;;;;16.31;60.17;98937.33;1733476;82;20165;-84
2021/10/01 12:28:22;;;;;;;;;;;;;;;16.38;61.01;98932.88;1735300;82;20444;-84
2021/10/01 12:31:03;;;;;;;;;;;;;;;16.39;59.46;98929.02;1735219;82;20408;-84
2021/10/01 12:33:29;;;;;;;;;;;;;;;16.51;59.33;98925.86;1735310;82;21077;-84
2021/10/01 12:35:55;;;;;;;;;;;;;;;16.62;58.42;98917.19;1735260;82;20084;-84
2021/10/01 12:38:21;;;;;;;;;;;;;;;16.59;59.43;98916.42;1735503;82;20204;-84
2021/10/01 12:41:07;;;;;;;;;;;;;;;16.55;58.65;98910.47;1704866;82;20135;-85
2021/10/01 12:43:46;;;;;;;;;;;;;;;16.55;59.90;98914.56;1735489;82;20104;-84
2021/10/01 12:46:11;;;;;;;;;;;;;;;16.59;59.44;98911.52;1731117;82;20769;-84
2021/10/01 12:48:37;;;;;;;;;;;;;;;16.71;59.73;98906.97;1705099;82;20198;-84
2021/10/01 12:51:16;;;;;;;;;;;;;;;16.76;57.85;98902.80;1735164;82;20417;-84
2021/10/01 12:53:42;;;;;;;;;;;;;;;16.68;57.87;98903.44;1732903;82;20518;-85
2021/10/01 12:56:18;;;;;;;;;;;;;;;16.63;59.42;98897.48;1735085;82;20243;-84
2021/10/01 12:58:44;;;;;;;;;;;;;;;16.64;59.98;98897.17;1735108;82;21077;-84
2021/10/01 13:01:18;;;;;;;;;;;;;;;16.64;59.56;98891.70;1735129;82;20178;-84
2021/10/01 13:03:47;;;;;;;;;;;;;;;16.67;59.87;98886.77;1734444;82;20145;-84
2021/10/01 13:06:31;;;;;;;;;;;;;;;16.67;59.42;98882.11;1735127;82;20424;-84
2021/10/01 13:08:57;;;;;;;;;;;;;;;16.74;59.69;98873.52;1735458;82;20140;-84
2021/10/01 13:11:23;;;;;;;;;;;;;;;16.79;60.29;98872.89;1705001;82;21880;-84
2021/10/01 13:13:49;;;;;;;;;;;;;;;16.86;60.69;98867.84;1735178;82;20211;-84
2021/10/01 13:16:19;;;;;;;;;;;;;;;16.79;58.98;98869.34;1735104;82;20178;-84
2021/10/01 13:18:44;;;;;;;;;;;;;;;16.67;57.96;98864.87;1733624;82;20144;-84
2021/10/01 13:21:19;;;;;;;;;;;;;;;16.83;60.51;98868.43;1735254;82;20140;-84
2021/10/01 13:23:59;;;;;;;;;;;;;;;16.67;58.64;98862.14;1748135;82;21128;-84
2021/10/01 13:26:27;;;;;;;;;;;;;;;16.52;60.66;98861.27;1720471;83;20433;-84
2021/10/01 13:29:02;;;;;;;;;;;;;;;16.54;62.00;98859.60;1720807;83;20178;-84
2021/10/01 13:31:29;;;;;;;;;;;;;;;16.43;61.67;98860.88;1720622;83;20135;-84
2021/10/01 13:33:55;;;;;;;;;;;;;;;16.41;62.71;98851.61;1720907;83;20167;-84
2021/10/01 13:36:21;;;;;;;;;;;;;;;16.36;62.86;98855.78;1720598;83;21149;-84
2021/10/01 13:38:46;;;;;;;;;;;;;;;16.18;63.52;98847.04;1720651;83;20201;-84
2021/10/01 13:41:13;;;;;;;;;;;;;;;16.09;64.56;98842.79;1692195;83;20186;-84
2021/10/01 13:43:40;;;;;;;;;;;;;;;16.07;64.28;98840.91;1721572;83;20129;-84
2021/10/01 13:46:06;;;;;;;;;;;;;;;16.12;64.55;98836.72;1721775;83;20200;-84
2021/10/01 13:48:32;;;;;;;;;;;;;;;16.07;64.37;98837.63;1722002;83;21109;-84
2021/10/01 13:50:58;;;;;;;;;;;;;;;15.99;64.67;98834.74;1721588;83;20164;-84
2021/10/01 13:53:24;;;;;;;;;;;;;;;15.96;63.87;98832.02;1721936;83;20185;-84
2021/10/01 13:55:50;;;;;;;;;;;;;;;15.84;64.74;98825.38;1721809;83;20144;-84
2021/10/01 13:58:16;;;;;;;;;;;;;;;15.78;65.67;98826.81;1723451;83;20141;-84
2021/10/01 14:00:41;;;;;;;;;;;;;;;15.72;66.55;98823.06;1750919;82;21151;-84
2021/10/01 14:03:07;;;;;;;;;;;;;;;15.71;66.96;98821.44;1749705;82;20181;-84
2021/10/01 14:05:36;;;;;;;;;;;;;;;15.65;66.51;98818.54;1750898;82;32616;-84
2021/10/01 14:08:04;;;;;;;;;;;;;;;15.65;66.86;98817.17;1751089;82;20158;-84
2021/10/01 14:10:30;;;;;;;;;;;;;;;15.69;67.04;98816.83;1751079;81;20143;-84
2021/10/01 14:12:57;;;;;;;;;;;;;;;15.70;67.48;98814.36;1751208;82;21051;-84
2021/10/01 14:15:24;;;;;;;;;;;;;;;15.74;67.58;98816.78;1723689;82;20414;-84
2021/10/01 14:17:51;;;;;;;;;;;;;;;15.67;68.23;98814.95;1751282;82;20143;-84
2021/10/01 14:20:17;;;;;;;;;;;;;;;15.72;67.85;98808.88;1751142;82;20143;-84
2021/10/01 14:22:43;;;;;;;;;;;;;;;15.77;67.88;98808.79;1751408;81;20150;-84
2021/10/01 14:25:10;;;;;;;;;;;;;;;15.79;68.11;98809.30;1750975;82;21074;-84
2021/10/01 14:27:36;;;;;;;;;;;;;;;15.82;68.05;98803.83;1751178;82;20161;-84
2021/10/01 14:30:04;;;;;;;;;;;;;;;15.77;68.20;98802.52;1750967;82;20544;-84
2021/10/01 14:32:30;;;;;;;;;;;;;;;15.74;68.54;98798.46;1751219;81;20163;-84
2021/10/01 14:34:56;;;;;;;;;;;;;;;15.65;68.33;98800.23;1750970;81;20149;-84
2021/10/01 14:37:22;;;;;;;;;;;;;;;15.61;68.27;98799.17;1751279;82;21794;-83
2021/10/01 14:39:47;;;;;;;;;;;;;;;15.68;68.13;98796.09;1750871;81;20244;-83